Time;durP1;ratioP1;P1;durP2;ratioP2;P2;SDS_P1;SDS_P2;PMS_P1;PMS_P2;Temp;Humidity;BMP_temperature;BMP_pressure;BME280_temperature;BME280_humidity;BME280_pressure;Samples;Min_cycle;Max_cycle;Signal;HPM_P1;HPM_P2
2021/10/17 00:01:21;;;;;;;10.97;7.97;;;6.20;99.90;;;;;;5092317;28;20208;-57
2021/10/17 00:03:47;;;;;;;14.03;8.53;;;6.20;99.90;;;;;;5092352;28;20216;-56
2021/10/17 00:06:16;;;;;;;10.60;8.60;;;6.10;99.90;;;;;;5092376;28;20224;-56
2021/10/17 00:08:43;;;;;;;9.37;8.33;;;6.10;99.90;;;;;;5092065;28;20714;-55
2021/10/17 00:11:09;;;;;;;10.30;8.03;;;6.10;99.90;;;;;;5092109;28;20685;-55
2021/10/17 00:13:36;;;;;;;8.80;7.80;;;6.10;99.90;;;;;;5092490;28;20216;-56
2021/10/17 00:16:05;;;;;;;9.27;7.90;;;6.10;99.90;;;;;;5091317;28;20235;-56
2021/10/17 00:18:32;;;;;;;10.77;8.00;;;6.10;99.90;;;;;;5092285;28;20208;-56
2021/10/17 00:20:59;;;;;;;9.43;8.17;;;6.00;99.90;;;;;;5092177;28;20215;-57
2021/10/17 00:23:26;;;;;;;8.87;7.50;;;6.00;99.90;;;;;;5091741;28;20654;-57
2021/10/17 00:25:52;;;;;;;9.67;7.80;;;6.00;99.90;;;;;;5091947;28;20618;-57
2021/10/17 00:28:19;;;;;;;9.37;7.80;;;6.00;99.90;;;;;;5091746;28;20209;-57
2021/10/17 00:30:46;;;;;;;11.77;8.73;;;6.00;99.90;;;;;;5092012;28;20871;-57
2021/10/17 00:33:14;;;;;;;9.47;8.20;;;6.00;99.90;;;;;;5091800;28;20208;-56
2021/10/17 00:35:41;;;;;;;8.97;8.07;;;6.00;99.90;;;;;;5092042;28;20231;-59
2021/10/17 00:38:08;;;;;;;9.80;8.60;;;6.00;99.90;;;;;;5091351;28;20205;-59
2021/10/17 00:40:35;;;;;;;9.77;7.27;;;6.10;99.90;;;;;;5091483;28;20668;-60
2021/10/17 00:43:02;;;;;;;13.53;9.27;;;6.00;99.90;;;;;;5091482;28;20226;-58
2021/10/17 00:45:32;;;;;;;9.47;7.93;;;6.00;99.90;;;;;;5091509;28;20261;-58
2021/10/17 00:48:00;;;;;;;12.60;8.67;;;6.00;99.90;;;;;;5091655;28;20215;-59
2021/10/17 00:50:29;;;;;;;10.50;8.63;;;6.00;99.90;;;;;;5091386;28;20212;-59
2021/10/17 00:52:56;;;;;;;10.97;8.80;;;5.90;99.90;;;;;;5091379;28;20200;-59
2021/10/17 00:55:24;;;;;;;10.33;8.50;;;5.90;99.90;;;;;;5090950;28;20738;-58
2021/10/17 00:57:51;;;;;;;11.07;8.43;;;5.90;99.90;;;;;;5091552;28;20239;-59
2021/10/17 01:00:17;;;;;;;11.93;9.47;;;5.90;99.90;;;;;;5091314;28;20203;-60
2021/10/17 01:02:44;;;;;;;12.20;9.53;;;5.90;99.90;;;;;;5091064;28;20675;-59
2021/10/17 01:05:13;;;;;;;13.93;9.63;;;5.90;99.90;;;;;;5090957;28;20231;-59
2021/10/17 01:07:42;;;;;;;15.67;12.73;;;5.90;99.90;;;;;;5090998;28;20200;-59
2021/10/17 01:10:09;;;;;;;13.63;10.20;;;6.00;99.90;;;;;;5090941;28;20581;-59
2021/10/17 01:12:36;;;;;;;12.67;10.23;;;6.00;99.90;;;;;;5090857;28;20679;-59
2021/10/17 01:15:03;;;;;;;12.60;10.03;;;6.10;99.90;;;;;;5090896;28;20503;-59
2021/10/17 01:17:30;;;;;;;13.37;9.60;;;6.10;99.90;;;;;;5090806;28;20231;-60
2021/10/17 01:19:58;;;;;;;12.67;10.17;;;6.20;99.90;;;;;;5090786;28;20208;-59
2021/10/17 01:22:25;;;;;;;11.70;9.70;;;6.20;99.90;;;;;;5090663;28;20204;-59
2021/10/17 01:24:52;;;;;;;12.40;10.37;;;6.20;99.90;;;;;;5090907;28;20700;-59
2021/10/17 01:27:19;;;;;;;11.67;10.07;;;6.30;99.90;;;;;;5094513;28;20261;-59
2021/10/17 01:29:47;;;;;;;12.87;10.03;;;6.30;99.90;;;;;;5094813;28;20208;-59
2021/10/17 01:32:14;;;;;;;14.70;10.17;;;6.30;99.90;;;;;;5094775;28;20481;-59
2021/10/17 01:34:41;;;;;;;13.63;11.07;;;6.40;99.90;;;;;;5094472;28;20578;-60
2021/10/17 01:37:09;;;;;;;12.90;10.20;;;6.40;99.90;;;;;;5095071;28;20235;-59
2021/10/17 01:39:36;;;;;;;9.67;8.07;;;6.40;99.90;;;;;;5094770;28;20216;-59
2021/10/17 01:42:03;;;;;;;10.03;7.80;;;6.40;99.90;;;;;;5094953;28;20570;-60
2021/10/17 01:44:32;;;;;;;9.53;7.97;;;6.40;99.90;;;;;;5094679;28;20667;-59
2021/10/17 01:47:00;;;;;;;8.33;6.77;;;6.40;99.90;;;;;;5094846;28;20632;-58
2021/10/17 01:49:27;;;;;;;9.93;6.80;;;6.40;99.90;;;;;;5094496;28;20204;-59
2021/10/17 01:51:54;;;;;;;8.37;6.73;;;6.40;99.90;;;;;;5094831;28;20207;-59
2021/10/17 01:54:23;;;;;;;9.57;7.00;;;6.40;99.90;;;;;;5094539;28;20261;-58
2021/10/17 01:56:50;;;;;;;11.10;7.30;;;6.40;99.90;;;;;;5094444;28;20242;-58
2021/10/17 01:59:16;;;;;;;9.83;7.40;;;6.40;99.90;;;;;;5094409;28;20227;-59
2021/10/17 02:01:44;;;;;;;10.40;8.07;;;6.30;99.90;;;;;;5094703;28;20204;-58
2021/10/17 02:04:11;;;;;;;11.67;9.63;;;6.30;99.90;;;;;;5094184;28;20694;-59
2021/10/17 02:06:38;;;;;;;10.90;9.13;;;6.20;99.90;;;;;;5094193;28;20227;-58
2021/10/17 02:09:05;;;;;;;9.50;8.50;;;6.20;99.90;;;;;;5094484;28;20214;-59
2021/10/17 02:11:33;;;;;;;9.47;7.43;;;6.20;99.90;;;;;;5094560;28;20269;-58
2021/10/17 02:13:59;;;;;;;8.90;7.57;;;6.20;99.90;;;;;;5094322;28;20356;-60
2021/10/17 02:16:26;;;;;;;9.20;7.57;;;6.20;99.90;;;;;;5094199;28;20224;-58
2021/10/17 02:18:53;;;;;;;12.63;9.63;;;6.20;99.90;;;;;;5094059;28;20672;-59
2021/10/17 02:21:19;;;;;;;12.50;9.13;;;6.20;99.90;;;;;;5094485;28;20242;-58
2021/10/17 02:23:46;;;;;;;12.43;9.63;;;6.10;99.90;;;;;;5094219;28;20682;-58
2021/10/17 02:26:13;;;;;;;13.27;9.77;;;6.10;99.90;;;;;;5094109;28;20224;-59
2021/10/17 02:28:41;;;;;;;11.33;8.70;;;6.20;99.90;;;;;;5093809;28;20648;-58
2021/10/17 02:31:08;;;;;;;11.77;10.10;;;6.10;99.90;;;;;;5094417;28;20211;-59
2021/10/17 02:33:34;;;;;;;11.23;9.50;;;6.10;99.90;;;;;;5093483;28;20217;-58
2021/10/17 02:36:01;;;;;;;13.53;10.47;;;6.20;99.90;;;;;;5093501;28;20232;-59
2021/10/17 02:38:29;;;;;;;11.03;9.33;;;6.20;99.90;;;;;;5093327;28;20208;-59
2021/10/17 02:40:56;;;;;;;11.80;9.50;;;6.20;99.90;;;;;;5093704;28;20204;-59
2021/10/17 02:43:22;;;;;;;12.50;9.63;;;6.20;99.90;;;;;;5093601;28;20204;-58
2021/10/17 02:45:51;;;;;;;11.43;9.10;;;6.20;99.90;;;;;;5093426;28;20226;-59
2021/10/17 02:48:18;;;;;;;11.87;8.83;;;6.20;99.90;;;;;;5093569;28;20204;-59
2021/10/17 02:50:45;;;;;;;11.70;9.57;;;6.10;99.90;;;;;;5094764;28;20204;-59
2021/10/17 02:53:12;;;;;;;10.07;8.47;;;6.10;99.90;;;;;;5094976;28;20204;-59
2021/10/17 02:55:38;;;;;;;10.57;8.53;;;6.10;99.90;;;;;;5094688;28;20228;-59
2021/10/17 02:58:05;;;;;;;13.77;9.80;;;6.10;99.90;;;;;;5094050;28;20220;-59
2021/10/17 03:00:32;;;;;;;10.73;8.53;;;6.10;99.90;;;;;;5093143;28;20584;-59
2021/10/17 03:03:00;;;;;;;10.67;9.43;;;6.10;99.90;;;;;;5093289;28;20208;-58
2021/10/17 03:05:27;;;;;;;9.23;8.20;;;6.10;99.90;;;;;;5093100;28;20228;-59
2021/10/17 03:07:53;;;;;;;9.00;8.03;;;6.10;99.90;;;;;;5093430;28;20208;-59
2021/10/17 03:10:22;;;;;;;9.60;8.07;;;6.10;99.90;;;;;;5093423;28;20269;-60
2021/10/17 03:12:49;;;;;;;8.60;7.70;;;6.00;99.90;;;;;;5092997;28;20751;-59
2021/10/17 03:15:16;;;;;;;8.23;7.23;;;6.00;99.90;;;;;;5092688;28;20236;-57
2021/10/17 03:17:42;;;;;;;9.77;7.37;;;6.00;99.90;;;;;;5093010;28;20297;-61
2021/10/17 03:20:12;;;;;;;7.80;7.00;;;5.80;99.90;;;;;;5093012;28;20676;-59
2021/10/17 03:22:39;;;;;;;7.13;6.43;;;5.70;99.90;;;;;;5092981;28;20200;-59
2021/10/17 03:25:06;;;;;;;8.10;6.07;;;5.60;99.90;;;;;;5092687;28;20232;-59
2021/10/17 03:27:33;;;;;;;7.60;6.80;;;5.60;99.90;;;;;;5093078;28;20201;-60
2021/10/17 03:30:00;;;;;;;7.30;6.17;;;5.70;99.90;;;;;;5093007;28;20208;-59
2021/10/17 03:32:26;;;;;;;7.13;6.27;;;5.80;99.90;;;;;;5092846;28;20709;-59
2021/10/17 03:34:53;;;;;;;6.60;5.90;;;5.90;99.90;;;;;;5092352;28;20204;-59
2021/10/17 03:37:21;;;;;;;6.40;5.70;;;6.00;99.90;;;;;;5092561;28;20220;-59
2021/10/17 03:39:48;;;;;;;5.90;5.30;;;6.10;99.90;;;;;;5092408;28;20215;-61
2021/10/17 03:42:14;;;;;;;6.53;5.90;;;6.20;99.90;;;;;;5092373;28;20632;-60
2021/10/17 03:44:41;;;;;;;7.83;5.67;;;6.20;99.90;;;;;;5092542;28;20208;-60
2021/10/17 03:47:08;;;;;;;6.37;5.40;;;6.30;99.90;;;;;;5092579;28;20204;-59
2021/10/17 03:49:34;;;;;;;6.17;5.57;;;6.30;99.90;;;;;;5091503;28;20204;-59
2021/10/17 03:52:01;;;;;;;6.80;6.00;;;6.40;99.90;;;;;;5092122;28;20600;-58
2021/10/17 03:54:29;;;;;;;7.20;6.10;;;6.40;99.90;;;;;;5092194;28;20629;-58
2021/10/17 03:56:56;;;;;;;6.53;5.37;;;6.40;99.90;;;;;;5092174;28;20284;-59
2021/10/17 03:59:22;;;;;;;7.20;5.77;;;6.40;99.90;;;;;;5092342;28;20208;-59
2021/10/17 04:01:49;;;;;;;6.80;5.67;;;6.50;99.90;;;;;;5092396;28;20211;-57
2021/10/17 04:04:16;;;;;;;6.00;5.40;;;6.50;99.90;;;;;;5091954;28;20204;-59
2021/10/17 04:06:42;;;;;;;5.77;5.13;;;6.50;99.90;;;;;;5091938;28;20224;-58
2021/10/17 04:09:09;;;;;;;6.70;5.83;;;6.60;99.90;;;;;;5091794;28;20204;-59
2021/10/17 04:11:37;;;;;;;6.23;5.63;;;6.60;99.90;;;;;;5092152;28;20215;-57
2021/10/17 04:14:04;;;;;;;5.77;5.10;;;6.60;99.90;;;;;;5091827;28;20595;-58
2021/10/17 04:16:30;;;;;;;8.47;6.27;;;6.60;99.90;;;;;;5091671;28;20632;-59
2021/10/17 04:18:57;;;;;;;7.03;5.47;;;6.60;99.90;;;;;;5091733;28;20455;-59
2021/10/17 04:21:24;;;;;;;5.90;5.30;;;6.50;99.90;;;;;;5091718;28;20204;-59
2021/10/17 04:23:50;;;;;;;7.13;5.63;;;6.50;99.90;;;;;;5091449;28;20262;-59
2021/10/17 04:26:17;;;;;;;6.63;5.27;;;6.50;99.90;;;;;;5091487;28;20224;-59
2021/10/17 04:28:45;;;;;;;6.00;5.20;;;6.40;99.90;;;;;;5091588;28;20277;-59
2021/10/17 04:31:12;;;;;;;5.93;5.33;;;6.40;99.90;;;;;;5091672;28;20206;-58
2021/10/17 04:33:39;;;;;;;5.77;5.27;;;6.40;99.90;;;;;;5091195;28;20208;-59
2021/10/17 04:36:06;;;;;;;5.70;5.10;;;6.40;99.90;;;;;;5091224;28;20228;-58
2021/10/17 04:38:33;;;;;;;5.97;5.30;;;6.40;99.90;;;;;;5091098;28;20224;-60
2021/10/17 04:41:00;;;;;;;6.30;5.60;;;6.40;99.90;;;;;;5091539;28;20215;-59
2021/10/17 04:43:27;;;;;;;6.53;5.43;;;6.40;99.90;;;;;;5091377;28;20235;-60
2021/10/17 04:45:55;;;;;;;6.07;5.47;;;6.40;99.90;;;;;;5091347;28;20231;-60
2021/10/17 04:48:21;;;;;;;6.80;6.00;;;6.40;99.90;;;;;;5091136;28;20204;-60
2021/10/17 04:50:48;;;;;;;6.10;5.50;;;6.50;99.90;;;;;;5091181;28;20212;-59
2021/10/17 04:53:15;;;;;;;6.33;5.73;;;6.50;99.90;;;;;;5091158;28;20413;-59
2021/10/17 04:55:41;;;;;;;6.40;5.80;;;6.60;99.90;;;;;;5091161;28;20224;-60
2021/10/17 04:58:08;;;;;;;6.87;5.63;;;6.70;99.90;;;;;;5090933;28;20731;-58
2021/10/17 05:00:35;;;;;;;5.50;5.00;;;6.70;99.90;;;;;;5090914;28;20208;-60
2021/10/17 05:03:03;;;;;;;5.67;5.07;;;6.90;99.90;;;;;;5091175;28;20200;-58
2021/10/17 05:05:30;;;;;;;5.07;4.57;;;7.00;99.90;;;;;;5091247;28;20228;-58
2021/10/17 05:07:56;;;;;;;5.20;4.70;;;7.10;99.90;;;;;;5091671;28;20307;-58
2021/10/17 05:10:23;;;;;;;5.50;4.90;;;7.10;99.90;;;;;;5091358;28;20208;-59
2021/10/17 05:12:50;;;;;;;5.80;5.30;;;7.20;99.90;;;;;;5091345;28;20603;-59
2021/10/17 05:15:16;;;;;;;5.40;4.60;;;7.30;99.90;;;;;;5090738;28;20596;-57
2021/10/17 05:17:43;;;;;;;5.03;4.57;;;7.30;99.90;;;;;;5090791;28;20231;-59
2021/10/17 05:20:12;;;;;;;5.53;5.03;;;7.40;99.90;;;;;;5091202;28;20672;-60
2021/10/17 05:22:39;;;;;;;7.07;5.93;;;7.40;99.90;;;;;;5091088;28;20553;-58
2021/10/17 05:25:06;;;;;;;6.43;4.97;;;7.40;99.90;;;;;;5091141;28;20220;-59
2021/10/17 05:27:33;;;;;;;6.93;6.00;;;7.40;99.90;;;;;;5091520;28;20204;-59
2021/10/17 05:29:59;;;;;;;7.83;6.90;;;7.40;99.90;;;;;;5092829;28;20200;-59
2021/10/17 05:32:26;;;;;;;9.33;7.37;;;7.40;99.90;;;;;;5092447;28;20212;-60
2021/10/17 05:34:53;;;;;;;8.10;7.00;;;7.40;99.90;;;;;;5091738;28;20684;-59
2021/10/17 05:37:21;;;;;;;9.47;6.93;;;7.40;99.90;;;;;;5091100;28;20216;-59
2021/10/17 05:39:48;;;;;;;8.80;7.53;;;7.40;99.90;;;;;;5091161;28;20620;-59
2021/10/17 05:42:15;;;;;;;8.23;7.37;;;7.40;99.90;;;;;;5091395;28;20627;-59
2021/10/17 05:44:41;;;;;;;9.47;7.50;;;7.30;99.90;;;;;;5090683;28;20204;-59
2021/10/17 05:47:08;;;;;;;8.77;7.30;;;7.20;99.90;;;;;;5090823;28;20629;-59
2021/10/17 05:49:35;;;;;;;10.20;7.00;;;7.10;99.90;;;;;;5090674;28;20699;-59
2021/10/17 05:52:01;;;;;;;7.67;6.87;;;7.10;99.90;;;;;;5090812;28;20235;-59
2021/10/17 05:54:29;;;;;;;10.57;7.07;;;7.10;99.90;;;;;;5090398;28;20671;-59
2021/10/17 05:56:56;;;;;;;9.23;7.47;;;7.20;99.90;;;;;;5090431;28;20592;-59
2021/10/17 05:59:23;;;;;;;10.07;8.07;;;7.20;99.90;;;;;;5090545;28;20268;-59
2021/10/17 06:01:49;;;;;;;10.07;8.20;;;7.30;99.90;;;;;;5090489;28;20277;-59
2021/10/17 06:04:16;;;;;;;12.80;8.93;;;7.50;99.90;;;;;;5090514;28;20291;-59
2021/10/17 06:06:43;;;;;;;10.47;8.77;;;7.60;99.90;;;;;;5090784;28;20235;-59
2021/10/17 06:09:10;;;;;;;10.00;8.30;;;7.70;99.90;;;;;;5090991;28;20200;-58
2021/10/17 06:11:38;;;;;;;11.93;8.90;;;7.70;99.90;;;;;;5090475;28;20215;-60
2021/10/17 06:14:06;;;;;;;10.80;6.80;;;7.80;99.90;;;;;;5093201;28;20212;-60
2021/10/17 06:16:33;;;;;;;8.10;6.07;;;7.80;99.90;;;;;;5093915;28;20254;-60
2021/10/17 06:19:00;;;;;;;7.67;6.10;;;7.90;99.90;;;;;;5094190;28;20220;-60
2021/10/17 06:21:26;;;;;;;7.60;6.00;;;8.00;99.90;;;;;;5094542;28;20213;-58
2021/10/17 06:23:53;;;;;;;9.97;6.60;;;8.20;99.90;;;;;;5093760;28;20208;-59
2021/10/17 06:26:20;;;;;;;6.20;5.23;;;8.30;99.90;;;;;;5093912;28;20289;-59
2021/10/17 06:28:48;;;;;;;6.40;5.80;;;8.40;99.90;;;;;;5093773;28;20270;-60
2021/10/17 06:31:14;;;;;;;5.77;5.17;;;8.50;99.90;;;;;;5094131;28;20204;-58
2021/10/17 06:33:41;;;;;;;6.10;5.50;;;8.40;99.90;;;;;;5093781;28;20204;-59
2021/10/17 06:36:08;;;;;;;5.70;5.07;;;8.40;99.90;;;;;;5110217;22;20237;-65
2021/10/17 06:38:34;;;;;;;5.83;5.23;;;8.30;99.90;;;;;;5077826;28;20221;-66
2021/10/17 06:41:02;;;;;;;6.67;5.93;;;8.20;99.90;;;;;;5078609;28;20212;-64
2021/10/17 06:43:29;;;;;;;6.47;5.87;;;8.30;99.90;;;;;;5076904;28;20209;-65
2021/10/17 06:45:57;;;;;;;6.50;5.77;;;8.50;99.90;;;;;;5079087;28;20229;-66
2021/10/17 06:48:23;;;;;;;7.03;5.90;;;8.60;99.90;;;;;;5079331;28;20414;-65
2021/10/17 06:50:50;;;;;;;7.80;6.27;;;8.80;99.90;;;;;;5079367;28;20208;-63
2021/10/17 06:53:17;;;;;;;7.10;5.90;;;8.90;99.90;;;;;;5080465;28;20193;-67
2021/10/17 06:55:44;;;;;;;6.93;6.23;;;9.00;99.90;;;;;;5079712;28;20225;-66
2021/10/17 06:58:11;;;;;;;6.20;5.60;;;9.10;99.90;;;;;;5075592;28;20221;-62
2021/10/17 07:00:38;;;;;;;7.23;5.73;;;9.20;99.90;;;;;;5074052;28;20201;-59
2021/10/17 07:03:06;;;;;;;7.33;5.83;;;9.30;99.90;;;;;;5073812;28;20247;-60
2021/10/17 07:05:33;;;;;;;8.23;6.37;;;9.20;99.90;;;;;;5073577;28;20233;-59
2021/10/17 07:08:00;;;;;;;15.17;9.17;;;9.10;99.90;;;;;;5073583;28;20577;-60
2021/10/17 07:10:27;;;;;;;10.73;7.13;;;9.20;99.90;;;;;;5073464;28;20599;-60
2021/10/17 07:12:53;;;;;;;10.40;6.67;;;9.40;99.90;;;;;;5073423;28;20205;-60
2021/10/17 07:15:20;;;;;;;10.57;6.00;;;9.40;99.90;;;;;;5072731;28;20232;-60
2021/10/17 07:17:47;;;;;;;10.47;6.70;;;9.40;99.90;;;;;;5072940;28;20229;-60
2021/10/17 07:20:15;;;;;;;10.70;8.27;;;9.10;99.90;;;;;;5073063;28;20212;-60
2021/10/17 07:22:41;;;;;;;17.90;11.90;;;9.40;99.90;;;;;;5073392;28;20204;-60
2021/10/17 07:25:08;;;;;;;12.30;8.93;;;9.70;99.90;;;;;;5073108;28;20201;-59
2021/10/17 07:27:35;;;;;;;10.40;8.17;;;10.10;99.90;;;;;;5073524;28;20208;-59
2021/10/17 07:30:02;;;;;;;9.10;7.03;;;10.30;99.90;;;;;;5073166;28;20204;-60
2021/10/17 07:32:29;;;;;;;9.57;6.50;;;10.40;99.90;;;;;;5073142;28;20262;-60
2021/10/17 07:34:55;;;;;;;6.40;5.77;;;10.60;99.90;;;;;;5073255;28;20311;-60
2021/10/17 07:37:23;;;;;;;6.73;5.97;;;10.70;99.90;;;;;;5072727;28;20259;-59
2021/10/17 07:39:50;;;;;;;6.53;5.87;;;10.70;99.90;;;;;;5073152;28;20236;-59
2021/10/17 07:42:17;;;;;;;7.97;5.63;;;10.70;99.90;;;;;;5073270;28;20208;-60
2021/10/17 07:44:43;;;;;;;11.27;6.43;;;10.40;99.90;;;;;;5073033;28;20205;-61
2021/10/17 07:47:10;;;;;;;7.13;6.10;;;10.20;99.90;;;;;;5073137;28;20243;-60
2021/10/17 07:49:37;;;;;;;8.17;5.90;;;10.30;99.90;;;;;;5073187;28;20201;-60
2021/10/17 07:52:04;;;;;;;8.73;5.70;;;10.30;99.90;;;;;;5072881;28;20258;-60
2021/10/17 07:54:35;;;;;;;7.93;6.17;;;10.00;99.90;;;;;;5073622;28;20251;-62
2021/10/17 07:57:02;;;;;;;7.30;6.17;;;9.80;99.90;;;;;;5074335;28;20220;-63
2021/10/17 07:59:28;;;;;;;6.53;5.63;;;9.60;99.90;;;;;;5073996;28;20224;-64
2021/10/17 08:01:55;;;;;;;8.87;6.80;;;9.60;99.90;;;;;;5074508;28;20205;-63
2021/10/17 08:04:22;;;;;;;7.20;6.40;;;9.70;99.90;;;;;;5073736;28;20205;-64
2021/10/17 08:06:48;;;;;;;8.60;7.03;;;10.20;99.90;;;;;;5074184;28;20229;-64
2021/10/17 08:09:15;;;;;;;6.93;6.17;;;10.70;99.90;;;;;;5073280;28;20668;-64
2021/10/17 08:11:43;;;;;;;8.10;6.50;;;11.20;99.90;;;;;;5072655;28;20219;-64
2021/10/17 08:14:10;;;;;;;11.47;8.90;;;11.40;99.90;;;;;;5072701;28;20208;-64
2021/10/17 08:16:37;;;;;;;9.93;7.30;;;11.20;99.90;;;;;;5072815;28;20232;-64
2021/10/17 08:19:04;;;;;;;7.00;6.30;;;11.40;99.90;;;;;;5072894;28;20221;-63
2021/10/17 08:21:31;;;;;;;9.83;6.00;;;11.70;99.90;;;;;;5072356;28;20213;-65
2021/10/17 08:23:58;;;;;;;9.27;6.73;;;11.80;99.90;;;;;;5072317;28;20235;-65
2021/10/17 08:26:25;;;;;;;7.70;6.77;;;12.00;99.90;;;;;;5072170;28;20232;-63
2021/10/17 08:28:53;;;;;;;7.07;6.37;;;12.20;99.90;;;;;;5072692;28;20201;-65
2021/10/17 08:31:19;;;;;;;8.60;7.10;;;12.50;99.90;;;;;;5072282;28;20205;-65
2021/10/17 08:33:46;;;;;;;11.13;9.37;;;12.70;99.90;;;;;;5072031;28;20201;-64
2021/10/17 08:36:13;;;;;;;8.20;7.10;;;13.00;99.90;;;;;;5071806;28;20237;-65
2021/10/17 08:38:41;;;;;;;10.70;9.60;;;13.40;99.90;;;;;;5072049;28;20231;-66
2021/10/17 08:41:08;;;;;;;10.40;8.20;;;13.60;99.90;;;;;;5072285;28;20205;-65
2021/10/17 08:43:34;;;;;;;9.30;7.97;;;13.70;99.90;;;;;;5071617;28;20207;-63
2021/10/17 08:46:02;;;;;;;9.73;8.13;;;13.80;99.90;;;;;;5071778;28;20769;-63
2021/10/17 08:48:32;;;;;;;9.70;8.63;;;14.00;99.90;;;;;;5071440;28;20201;-62
2021/10/17 08:50:59;;;;;;;10.40;8.87;;;14.10;99.90;;;;;;5071921;28;20753;-63
2021/10/17 08:53:27;;;;;;;11.00;8.90;;;13.70;99.90;;;;;;5071673;28;20208;-62
2021/10/17 08:55:54;;;;;;;8.50;7.63;;;13.60;99.90;;;;;;5071795;28;20229;-64
2021/10/17 08:58:21;;;;;;;9.40;8.40;;;13.80;99.90;;;;;;5072032;28;20225;-64
2021/10/17 09:00:48;;;;;;;10.03;8.63;;;13.80;99.90;;;;;;5071755;28;20688;-62
2021/10/17 09:03:30;;;;;;;10.10;8.33;;;13.70;99.90;;;;;;5071921;28;20216;-63
2021/10/17 09:05:57;;;;;;;11.37;9.00;;;13.90;99.90;;;;;;5071795;28;20274;-63
2021/10/17 09:08:28;;;;;;;9.67;8.73;;;13.60;99.90;;;;;;5071769;28;20255;-64
2021/10/17 09:10:55;;;;;;;11.10;9.53;;;13.50;99.90;;;;;;5072561;28;20573;-63
2021/10/17 09:13:21;;;;;;;11.20;9.17;;;13.70;99.90;;;;;;5072249;28;20209;-64
2021/10/17 09:15:48;;;;;;;11.00;9.90;;;14.00;99.90;;;;;;5071313;28;20231;-64
2021/10/17 09:18:18;;;;;;;11.63;10.40;;;14.40;99.90;;;;;;5072612;28;20216;-62
2021/10/17 09:20:56;;;;;;;11.87;9.80;;;14.80;99.90;;;;;;5071664;28;20205;-64
2021/10/17 09:23:44;;;;;;;13.13;11.70;;;15.20;99.90;;;;;;5071556;28;20210;-60
2021/10/17 09:26:18;;;;;;;13.77;11.33;;;15.40;99.90;;;;;;5070861;28;20229;-63
2021/10/17 09:28:45;;;;;;;11.97;10.57;;;15.50;99.90;;;;;;5071343;28;20657;-63
2021/10/17 09:31:14;;;;;;;11.83;10.63;;;15.30;99.90;;;;;;5071528;28;20699;-63
2021/10/17 09:33:49;;;;;;;14.10;11.80;;;15.00;99.90;;;;;;5071315;28;20208;-62
2021/10/17 09:36:22;;;;;;;13.13;11.73;;;14.90;99.90;;;;;;5070871;28;20239;-64
2021/10/17 09:38:52;;;;;;;22.50;19.67;;;14.50;99.90;;;;;;5070938;28;20233;-64
2021/10/17 09:41:21;;;;;;;19.70;15.03;;;14.50;99.90;;;;;;5070851;28;20209;-64
2021/10/17 09:43:53;;;;;;;14.33;11.90;;;14.70;99.90;;;;;;5070778;28;20353;-63
2021/10/17 09:46:19;;;;;;;13.43;11.73;;;14.90;99.90;;;;;;5070643;28;20247;-63
2021/10/17 09:48:48;;;;;;;15.67;13.77;;;15.00;99.90;;;;;;5073193;28;20275;-64
2021/10/17 09:51:16;;;;;;;14.80;13.27;;;15.30;99.90;;;;;;5074983;28;20204;-64
2021/10/17 09:53:46;;;;;;;14.23;12.10;;;15.20;99.90;;;;;;5074847;28;20211;-64
2021/10/17 09:56:29;;;;;;;13.80;12.30;;;15.30;99.90;;;;;;5074788;28;20228;-64
2021/10/17 09:58:56;;;;;;;14.33;12.47;;;15.50;99.90;;;;;;5072807;28;20248;-64
2021/10/17 10:01:24;;;;;;;15.77;13.03;;;15.30;99.90;;;;;;5074787;28;20602;-64
2021/10/17 10:03:53;;;;;;;16.73;13.73;;;14.90;99.90;;;;;;5075370;28;20211;-62
2021/10/17 10:06:20;;;;;;;15.43;13.80;;;14.60;99.90;;;;;;5075843;28;20221;-63
2021/10/17 10:08:47;;;;;;;14.67;13.03;;;14.50;99.90;;;;;;5074414;28;20266;-64
2021/10/17 10:11:15;;;;;;;17.10;14.37;;;14.00;99.90;;;;;;5074911;28;20205;-63
2021/10/17 10:13:42;;;;;;;15.53;13.73;;;13.40;99.90;;;;;;5074429;28;20217;-63
2021/10/17 10:16:09;;;;;;;15.10;13.40;;;13.10;99.90;;;;;;5074415;28;20232;-63
2021/10/17 10:18:37;;;;;;;17.50;14.70;;;13.50;99.90;;;;;;5074465;28;20213;-63
2021/10/17 10:21:07;;;;;;;16.53;13.00;;;14.00;99.90;;;;;;5074341;28;20251;-63
2021/10/17 10:23:35;;;;;;;16.90;15.20;;;14.20;99.90;;;;;;5070426;28;20449;-64
2021/10/17 10:26:02;;;;;;;16.10;14.03;;;14.00;99.90;;;;;;5074170;28;20244;-65
2021/10/17 10:28:29;;;;;;;16.00;13.73;;;14.30;99.90;;;;;;5073980;28;20201;-65
2021/10/17 10:30:56;;;;;;;16.00;14.30;;;14.60;99.90;;;;;;5074630;28;20606;-65
2021/10/17 10:33:24;;;;;;;15.00;13.50;;;14.90;99.90;;;;;;5058292;28;20210;-61
2021/10/17 10:36:13;;;;;;;16.93;14.67;;;15.10;99.90;;;;;;5053725;28;20276;-63
2021/10/17 10:39:08;;;;;;;15.03;13.43;;;15.50;99.90;;;;;;5054157;28;20205;-62
2021/10/17 10:41:46;;;;;;;18.33;14.77;;;15.60;99.90;;;;;;5054346;28;20619;-64
2021/10/17 10:44:14;;;;;;;16.10;14.40;;;15.10;99.90;;;;;;5054278;28;20213;-64
2021/10/17 10:46:41;;;;;;;18.20;14.17;;;14.50;99.90;;;;;;5054386;28;20236;-63
2021/10/17 10:49:08;;;;;;;21.20;17.53;;;14.00;99.90;;;;;;5053898;28;20206;-64
2021/10/17 10:51:41;;;;;;;17.50;15.47;;;13.90;99.90;;;;;;5053340;28;20209;-62
2021/10/17 10:54:28;;;;;;;16.90;14.37;;;14.30;99.90;;;;;;5053129;28;20217;-62
2021/10/17 10:56:56;;;;;;;17.67;15.43;;;14.40;99.90;;;;;;5053069;28;20712;-62
2021/10/17 10:59:25;;;;;;;18.10;15.57;;;14.90;99.90;;;;;;5053164;28;20252;-59
2021/10/17 11:02:01;;;;;;;19.13;14.63;;;15.30;99.90;;;;;;5053546;28;20213;-63
2021/10/17 11:05:07;;;;;;;17.60;15.10;;;15.60;99.90;;;;;;5053408;28;20209;-60
2021/10/17 11:07:40;;;;;;;20.37;18.27;;;15.70;99.90;;;;;;5065573;28;20902;-61
2021/10/17 11:10:36;;;;;;;18.63;15.97;;;16.00;99.90;;;;;;5073023;28;20201;-64
2021/10/17 11:13:04;;;;;;;17.47;15.67;;;16.20;99.90;;;;;;5073525;28;20247;-65
2021/10/17 11:15:33;;;;;;;16.20;14.50;;;16.10;99.90;;;;;;5073312;28;20599;-66
2021/10/17 11:18:03;;;;;;;20.53;16.07;;;15.70;99.90;;;;;;5072719;28;20216;-62
2021/10/17 11:20:31;;;;;;;19.47;16.03;;;15.60;99.90;;;;;;5072622;28;20700;-62
2021/10/17 11:23:00;;;;;;;21.70;16.93;;;15.80;99.90;;;;;;5072487;28;20209;-62
2021/10/17 11:25:28;;;;;;;18.03;15.60;;;15.80;99.90;;;;;;5072570;28;20257;-61
2021/10/17 11:27:56;;;;;;;19.23;16.37;;;15.50;99.90;;;;;;5072685;28;20216;-60
2021/10/17 11:30:25;;;;;;;19.13;17.13;;;15.30;99.90;;;;;;5072441;28;20201;-59
2021/10/17 11:32:52;;;;;;;20.47;16.97;;;14.90;99.90;;;;;;5072661;28;20208;-59
2021/10/17 11:35:27;;;;;;;19.63;16.97;;;14.50;99.90;;;;;;5072060;28;20236;-60
2021/10/17 11:37:53;;;;;;;20.70;16.60;;;14.20;99.90;;;;;;5072618;28;20239;-60
2021/10/17 11:40:22;;;;;;;18.73;16.17;;;14.20;99.90;;;;;;5072059;28;20228;-61
2021/10/17 11:42:50;;;;;;;19.30;16.50;;;14.30;99.90;;;;;;5072438;28;20204;-61
2021/10/17 11:45:22;;;;;;;24.60;21.37;;;14.50;99.90;;;;;;5072066;28;20228;-60
2021/10/17 11:47:50;;;;;;;20.00;17.23;;;14.80;99.90;;;;;;5071937;28;20227;-60
2021/10/17 11:50:22;;;;;;;19.63;16.80;;;15.10;99.90;;;;;;5072348;28;20211;-61
2021/10/17 11:52:53;;;;;;;20.10;17.87;;;15.50;99.90;;;;;;5072212;28;20628;-59
2021/10/17 11:55:35;;;;;;;18.60;16.17;;;15.70;99.90;;;;;;5071920;28;20231;-59
2021/10/17 11:58:03;;;;;;;20.83;17.57;;;15.40;99.90;;;;;;5071713;28;20213;-60
2021/10/17 12:00:32;;;;;;;20.80;16.87;;;15.10;99.90;;;;;;5072052;28;20221;-60
2021/10/17 12:02:59;;;;;;;19.83;16.77;;;14.90;99.90;;;;;;5072330;28;20254;-60
2021/10/17 12:05:27;;;;;;;19.07;16.10;;;14.90;99.90;;;;;;5072576;28;20225;-60
2021/10/17 12:07:56;;;;;;;21.50;17.10;;;14.80;99.90;;;;;;5072181;28;20205;-59
2021/10/17 12:10:24;;;;;;;20.87;17.67;;;14.90;99.90;;;;;;5071206;28;20208;-59
2021/10/17 12:12:56;;;;;;;20.63;16.90;;;14.50;99.90;;;;;;5072219;28;20209;-60
2021/10/17 12:15:23;;;;;;;20.77;17.23;;;14.10;99.90;;;;;;5071597;28;20777;-59
2021/10/17 12:18:00;;;;;;;23.47;18.23;;;13.80;99.90;;;;;;5071704;28;20610;-60
2021/10/17 12:20:29;;;;;;;21.23;16.93;;;14.00;99.90;;;;;;5071925;28;20643;-60
2021/10/17 12:22:56;;;;;;;20.33;17.60;;;14.10;99.90;;;;;;5071879;28;20211;-59
2021/10/17 12:25:23;;;;;;;19.33;17.23;;;14.40;99.90;;;;;;5071754;28;20225;-59
2021/10/17 12:27:51;;;;;;;21.67;18.00;;;14.20;99.90;;;;;;5071676;28;20201;-60
2021/10/17 12:30:20;;;;;;;23.07;19.23;;;14.00;99.90;;;;;;5071715;28;20685;-60
2021/10/17 12:32:50;;;;;;;20.73;17.47;;;13.90;99.90;;;;;;5071981;28;20582;-60
2021/10/17 12:37:43;;;;;;;25.00;19.33;;;14.10;99.90;;;;;;5092140;22;20239;-56
2021/10/17 12:40:10;;;;;;;22.27;18.17;;;14.40;99.90;;;;;;5071620;28;20225;-56
2021/10/17 12:42:45;;;;;;;23.47;19.47;;;14.80;99.90;;;;;;5071738;28;20224;-57
2021/10/17 12:45:14;;;;;;;21.93;18.70;;;15.20;99.90;;;;;;5071059;28;20200;-56
2021/10/17 12:47:41;;;;;;;20.50;17.47;;;15.50;99.90;;;;;;5071130;28;20758;-56
2021/10/17 12:50:15;;;;;;;22.33;18.53;;;15.60;99.90;;;;;;5070879;28;20227;-57